Bookmark and Share
Track history (hours):
 

Dr.kaiyo

Last reported at 2014-Apr-24 05:33 UTC. Time now 2014-Apr-24 11:12 UTC.
Position N 34°41' E 135°12'.

Length 31 m.

Type: Other ship. MMSI: 431301823.

NotesDate/timePositionNaut miles runAvg speedWind from/ knotsBaromVisibWave heightAir tempDewpointWater temp
2014-Apr-24 05:33N 34°41' E 135°12'9 8.7
2014-Apr-24 04:34N 34°33' E 135°13'5 4.8
2014-Apr-24 03:33N 34°29' E 135°17'5 4.8
2014-Apr-24 02:33N 34°28' E 135°11'8 8.1
2014-Apr-24 01:32N 34°28' E 135°01'9 9.1
2014-Apr-24 00:33N 34°32' E 135°10'9 9.3
2014-Apr-23 23:33N 34°41' E 135°12'1 0.0
2014-Apr-23 03:33N 34°41' E 135°13'1312.5
2014-Apr-23 02:33N 34°30' E 135°07'4 3.9
2014-Apr-23 01:33N 34°29' E 135°03'7 6.5
2014-Apr-23 00:33N 34°35' E 135°08'8 8.0
2014-Apr-22 23:33N 34°41' E 135°12'0 0.0
2014-Apr-22 06:34N 34°42' E 135°13'6 6.3
2014-Apr-22 05:33N 34°37' E 135°08'10 9.7
2014-Apr-22 04:31N 34°29' E 135°00'5 4.8
2014-Apr-22 03:27N 34°29' E 135°06'6 6.4
2014-Apr-22 02:33N 34°30' E 135°13'7 7.2
2014-Apr-22 01:31N 34°34' E 135°21'6 6.5
2014-Apr-22 00:33N 34°40' E 135°21'5 4.9
2014-Apr-21 23:33N 34°40' E 135°15'2 2.3
2014-Apr-21 22:33N 34°41' E 135°12'  
2014-Apr-18 05:04N 34°41' E 135°12'2 3.5
2014-Apr-18 04:33N 34°41' E 135°14'5 5.1
2014-Apr-18 03:33N 34°41' E 135°20'4 4.3
2014-Apr-18 02:33N 34°38' E 135°17'1312.3
2014-Apr-18 01:32N 34°27' E 135°10'7 7.5
2014-Apr-18 00:33N 34°34' E 135°09'8 8.1
2014-Apr-17 23:33N 34°41' E 135°12'0 0.0
2014-Apr-17 07:06N 34°41' E 135°12'1 1.8
2014-Apr-17 06:33N 34°41' E 135°12'1010.3
2014-Apr-17 05:33N 34°30' E 135°12'6 6.2
2014-Apr-17 04:33N 34°24' E 135°09'4 4.1
2014-Apr-17 03:33N 34°24' E 135°14'4 4.4
2014-Apr-17 02:33N 34°25' E 135°09'8 7.8
2014-Apr-17 01:33N 34°33' E 135°10'9 8.6
2014-Apr-17 00:33N 34°41' E 135°13'0 0.4
2014-Apr-16 23:33N 34°41' E 135°13'1 0.7
2014-Apr-16 22:33N 34°41' E 135°12'0 0.0
2014-Apr-16 05:04N 34°41' E 135°12'0 0.3
2014-Apr-16 04:33N 34°42' E 135°12'3 2.9
2014-Apr-16 03:33N 34°39' E 135°12'2 2.0
2014-Apr-16 02:33N 34°37' E 135°12'6 5.9
2014-Apr-16 01:33N 34°31' E 135°11'8 7.5
2014-Apr-16 00:33N 34°34' E 135°20'10 9.9
2014-Apr-15 23:33N 34°41' E 135°12'1 0.0
2014-Apr-15 05:34N 34°41' E 135°13'19 9.1
2014-Apr-15 03:31N 34°23' E 135°11'1010.8
2014-Apr-15 02:34N 34°28' E 135°01'1212.3
2014-Apr-15 01:34N 34°38' E 135°09'4 4.3
2014-Apr-15 00:34N 34°41' E 135°12'0 0.0
2014-Apr-14 23:34N 34°41' E 135°12'0 0.0
2014-Apr-14 22:33N 34°41' E 135°12'  

Dump ship's entire track history

sailing weather and tide predictions

Dr.kaiyo — JD2325 — position and weather